首页
METAR-TAF:

METAR-TAF

机场 :

Savannah/Hilton Head International Airport

薩凡納, 喬治亞, 美国

纬度: 32-07-08N, 经度: 081-12-08W, 海拔: 15米

当前天气观测

该预报发布于1小时和2分钟前的09:53 UTC
风速5节,风向南转西南
温度 17°C
湿度 72%
气压 1016 hPa
能見度: 16.1公里
多云层高于22000英尺
多云层高于25000英尺

METAR: KSAV 240953Z 20005KT 10SM BKN220 BKN250 17/12 A3000 RMK AO2 SLP157 T01720117

时间: 06:55 (10:55 UTC)

预报

该预报发布于5小时和24分钟前的05:31 UTC
预报有效从24日的 06点(UTC)到 25日的 06点(UTC)
风速5节,风向南转西南
能見度: 10公里
散云层高于25000英尺
从 24日的 1500点(UTC)
风速8节,风向西
能見度: 10公里
散云层高于25000英尺
从 24日的 2030点(UTC)
风速12节,风向南转西南,有时为18节阵风
能見度: 10公里
少量云层高于5000英尺
散云层高于25000英尺
从 25日的 0000点(UTC)
风速7节,风向
能見度: 10公里
少量云层高于25000英尺

TAF: KSAV 240531Z 2406/2506 21005KT P6SM SCT250 FM241500 26008KT P6SM SCT250 FM242030 20012G18KT P6SM FEW050 SCT250 FM250000 19007KT P6SM FEW250

超过4000个机场的气象观测和天气预报(METAR&TAF报告)。

可查询的气象台以黄色和红色小点在地图上表示。

将鼠标移到小点上方,可查看气象台名称。

然后点击查看天气观测和预报。

如需切换地图:点击带黑十字的绿色按钮放大地图;点击带横线的绿色按钮缩小地图;或者点击绿色箭头查看邻近地区的地图。


METAR-TAF: